Time;durP1;ratioP1;P1;durP2;ratioP2;P2;SDS_P1;SDS_P2;PMS_P1;PMS_P2;Temp;Humidity;BMP_temperature;BMP_pressure;BME280_temperature;BME280_humidity;BME280_pressure;Samples;Min_cycle;Max_cycle;Signal;HPM_P1;HPM_P2
2024/01/11 00:02:13;;;;;;;;;;;;;;;17.55;34.18;102031.44;5037312;28;1083;-65
2024/01/11 00:04:40;;;;;;;;;;;;;;;16.55;36.01;102025.41;5037359;28;1044;-61
2024/01/11 00:07:05;;;;;;;;;;;;;;;16.11;37.05;102027.78;5037193;28;1183;-64
2024/01/11 00:09:31;;;;;;;;;;;;;;;17.45;34.68;102029.34;5036861;28;1155;-64
2024/01/11 00:11:57;;;;;;;;;;;;;;;17.71;33.79;102031.69;5037167;28;1255;-64
2024/01/11 00:14:22;;;;;;;;;;;;;;;16.64;35.99;102023.16;5037232;28;1913;-64
2024/01/11 00:16:48;;;;;;;;;;;;;;;16.15;36.98;102018.81;5037312;28;1085;-64
2024/01/11 00:19:13;;;;;;;;;;;;;;;17.61;34.13;102027.72;5036924;28;2657;-65
2024/01/11 00:21:39;;;;;;;;;;;;;;;17.48;34.43;102022.53;5036805;28;1064;-65
2024/01/11 00:24:04;;;;;;;;;;;;;;;16.49;36.14;102010.75;5036914;28;1028;-64
2024/01/11 00:26:30;;;;;;;;;;;;;;;16.13;37.06;102015.50;5036796;28;1138;-64
2024/01/11 00:28:55;;;;;;;;;;;;;;;17.52;34.67;102014.63;5037198;28;1040;-64
2024/01/11 00:31:21;;;;;;;;;;;;;;;17.95;33.73;102016.69;5036899;28;1041;-64
2024/01/11 00:33:47;;;;;;;;;;;;;;;16.75;35.62;102014.03;5036923;28;1910;-65
2024/01/11 00:36:17;;;;;;;;;;;;;;;16.24;36.86;102005.53;5036195;28;1048;-65
2024/01/11 00:38:42;;;;;;;;;;;;;;;17.19;35.08;102006.06;5036694;28;1430;-65
2024/01/11 00:41:08;;;;;;;;;;;;;;;17.87;33.55;102008.00;5036797;28;1212;-66
2024/01/11 00:43:33;;;;;;;;;;;;;;;16.68;36.00;102005.91;5037141;28;1020;-65
2024/01/11 00:45:59;;;;;;;;;;;;;;;16.16;36.94;102011.41;5035854;28;1080;-65
2024/01/11 00:48:25;;;;;;;;;;;;;;;17.51;34.49;102004.69;5037289;28;986;-65
2024/01/11 00:50:51;;;;;;;;;;;;;;;17.75;33.75;102005.34;5036862;28;2449;-66
2024/01/11 00:53:17;;;;;;;;;;;;;;;16.72;35.66;101998.88;5036518;28;1971;-65
2024/01/11 00:55:43;;;;;;;;;;;;;;;16.25;36.66;102010.78;5036097;28;1048;-66
2024/01/11 00:58:08;;;;;;;;;;;;;;;17.76;33.94;102004.25;5036648;28;1049;-65
2024/01/11 01:00:34;;;;;;;;;;;;;;;17.39;34.41;102002.84;5036407;28;1032;-65
2024/01/11 01:02:59;;;;;;;;;;;;;;;16.49;36.32;101999.75;5036235;28;1036;-65
2024/01/11 01:05:25;;;;;;;;;;;;;;;16.05;37.13;101994.72;5036765;28;1040;-65
2024/01/11 01:07:50;;;;;;;;;;;;;;;17.34;34.58;101996.44;5036451;28;1036;-65
2024/01/11 01:10:16;;;;;;;;;;;;;;;18.12;33.19;101994.63;5036073;28;1112;-65
2024/01/11 01:12:42;;;;;;;;;;;;;;;16.90;35.36;101977.78;5036233;28;1992;-65
2024/01/11 01:15:07;;;;;;;;;;;;;;;16.27;36.73;101979.53;5035387;28;1095;-65
2024/01/11 01:17:33;;;;;;;;;;;;;;;17.24;34.96;101978.69;5036639;28;1156;-65
2024/01/11 01:19:58;;;;;;;;;;;;;;;17.84;33.53;101972.72;5035764;28;1849;-63
2024/01/11 01:22:24;;;;;;;;;;;;;;;16.71;35.79;101972.47;5035812;28;1081;-65
2024/01/11 01:24:50;;;;;;;;;;;;;;;16.21;36.78;101957.47;5035982;28;1076;-64
2024/01/11 01:27:16;;;;;;;;;;;;;;;17.44;34.36;101958.09;5035938;28;1210;-64
2024/01/11 01:29:41;;;;;;;;;;;;;;;17.64;33.78;101957.56;5035671;28;1044;-64
2024/01/11 01:32:07;;;;;;;;;;;;;;;16.67;36.00;101952.06;5036007;28;1008;-63
2024/01/11 01:34:32;;;;;;;;;;;;;;;16.18;36.76;101944.22;5035195;28;2018;-64
2024/01/11 01:36:58;;;;;;;;;;;;;;;17.64;34.29;101943.81;5035821;28;1128;-63
2024/01/11 01:39:23;;;;;;;;;;;;;;;17.67;33.91;101948.00;5035916;28;1049;-63
2024/01/11 01:41:49;;;;;;;;;;;;;;;16.64;35.79;101941.56;5035553;28;1064;-64
2024/01/11 01:44:15;;;;;;;;;;;;;;;16.21;36.55;101937.44;5036055;28;1136;-63
2024/01/11 01:46:40;;;;;;;;;;;;;;;17.13;34.99;101938.38;5035347;28;1115;-64
2024/01/11 01:49:06;;;;;;;;;;;;;;;18.12;33.12;101928.56;5035857;28;1097;-65
2024/01/11 01:51:31;;;;;;;;;;;;;;;16.88;35.40;101931.34;5018063;28;2566;-64
2024/01/11 01:53:57;;;;;;;;;;;;;;;16.26;36.68;101923.81;5035786;28;1971;-64
2024/01/11 01:56:23;;;;;;;;;;;;;;;16.77;35.69;101927.56;5036057;28;1131;-63
2024/01/11 01:58:49;;;;;;;;;;;;;;;18.03;33.23;101935.59;5035475;28;1056;-64
2024/01/11 02:01:15;;;;;;;;;;;;;;;16.96;35.30;101929.25;5035724;28;1115;-64
2024/01/11 02:03:40;;;;;;;;;;;;;;;16.20;36.46;101917.41;5035328;28;1453;-64
2024/01/11 02:06:06;;;;;;;;;;;;;;;17.09;35.00;101917.97;5035618;28;1013;-64
2024/01/11 02:08:31;;;;;;;;;;;;;;;18.11;33.28;101921.41;5018155;28;1298;-65
2024/01/11 02:10:57;;;;;;;;;;;;;;;16.85;35.18;101911.75;5035361;28;1072;-63
2024/01/11 02:13:23;;;;;;;;;;;;;;;16.23;36.45;101914.16;5017731;28;1977;-63
2024/01/11 02:15:48;;;;;;;;;;;;;;;16.90;35.32;101909.94;5035895;28;1032;-62
2024/01/11 02:18:14;;;;;;;;;;;;;;;18.09;33.35;101917.22;5017103;28;1049;-64
2024/01/11 02:20:40;;;;;;;;;;;;;;;16.95;35.01;101914.69;5018014;28;2525;-63
2024/01/11 02:23:06;;;;;;;;;;;;;;;16.33;36.56;101913.53;5017371;28;1096;-63
2024/01/11 02:25:31;;;;;;;;;;;;;;;16.55;36.35;101910.94;5018443;28;1075;-63
2024/01/11 02:27:57;;;;;;;;;;;;;;;17.95;33.51;101911.31;5038132;28;1164;-63
2024/01/11 02:30:23;;;;;;;;;;;;;;;17.11;34.73;101904.81;5039236;28;1004;-64
2024/01/11 02:32:48;;;;;;;;;;;;;;;16.35;36.30;101911.34;5039320;28;1953;-64
2024/01/11 02:35:17;;;;;;;;;;;;;;;16.84;35.42;101908.16;5030147;28;1686;-63
2024/01/11 02:37:43;;;;;;;;;;;;;;;18.01;33.29;101903.94;5039105;28;1136;-64
2024/01/11 02:40:09;;;;;;;;;;;;;;;16.88;35.32;101903.00;5038712;28;1430;-63
2024/01/11 02:42:35;;;;;;;;;;;;;;;16.23;36.72;101908.66;5039038;28;1239;-64
2024/01/11 02:45:01;;;;;;;;;;;;;;;17.24;34.75;101900.88;5039127;28;1021;-64
2024/01/11 02:47:26;;;;;;;;;;;;;;;18.08;33.19;101905.41;5037957;28;1033;-65
2024/01/11 02:49:52;;;;;;;;;;;;;;;16.84;35.20;101901.84;5038690;28;2290;-65
2024/01/11 02:52:17;;;;;;;;;;;;;;;16.21;36.45;101902.56;5039313;28;1092;-64
2024/01/11 02:54:43;;;;;;;;;;;;;;;16.73;35.59;101903.56;5038996;28;1926;-64
2024/01/11 02:57:08;;;;;;;;;;;;;;;17.95;33.44;101894.78;5038518;28;1040;-65
2024/01/11 02:59:34;;;;;;;;;;;;;;;16.82;35.26;101901.25;5038304;28;858;-66
2024/01/11 03:02:00;;;;;;;;;;;;;;;16.28;36.55;101885.97;5038368;28;1068;-65
2024/01/11 03:04:25;;;;;;;;;;;;;;;16.81;35.52;101885.84;5038586;28;1040;-65
2024/01/11 03:06:51;;;;;;;;;;;;;;;18.00;33.36;101896.75;5038452;28;1140;-65
2024/01/11 03:09:16;;;;;;;;;;;;;;;16.90;35.21;101887.13;5038252;28;1124;-64
2024/01/11 03:11:42;;;;;;;;;;;;;;;16.28;36.43;101893.38;5037859;28;1112;-65
2024/01/11 03:14:07;;;;;;;;;;;;;;;17.13;34.84;101882.56;5038695;28;1906;-64
2024/01/11 03:16:33;;;;;;;;;;;;;;;18.15;33.15;101894.19;5038349;28;1012;-64
2024/01/11 03:18:59;;;;;;;;;;;;;;;16.86;35.23;101884.03;5038483;28;1140;-64
2024/01/11 03:21:25;;;;;;;;;;;;;;;16.22;36.34;101873.25;5038052;28;2522;-65
2024/01/11 03:23:50;;;;;;;;;;;;;;;16.83;35.58;101883.69;5037830;28;1060;-64
2024/01/11 03:26:16;;;;;;;;;;;;;;;18.05;33.27;101874.81;5037570;28;1087;-64
2024/01/11 03:28:42;;;;;;;;;;;;;;;16.96;35.11;101871.56;5020407;28;1073;-65
2024/01/11 03:31:08;;;;;;;;;;;;;;;16.26;36.62;101868.94;5037756;28;1099;-64
2024/01/11 03:33:34;;;;;;;;;;;;;;;16.96;35.12;101869.66;5038221;28;1905;-64
2024/01/11 03:35:59;;;;;;;;;;;;;;;18.09;33.13;101871.28;5037956;28;1061;-65
2024/01/11 03:38:25;;;;;;;;;;;;;;;16.90;35.12;101876.13;5037211;28;1008;-64
2024/01/11 03:40:51;;;;;;;;;;;;;;;16.28;36.49;101864.00;5037607;28;1076;-64
2024/01/11 03:43:17;;;;;;;;;;;;;;;17.24;34.73;101863.22;5038591;28;1088;-64
2024/01/11 03:45:43;;;;;;;;;;;;;;;17.85;33.62;101867.09;5037973;28;1059;-64
2024/01/11 03:48:08;;;;;;;;;;;;;;;16.65;35.56;101860.88;5036291;28;861;-64
2024/01/11 03:50:34;;;;;;;;;;;;;;;16.17;36.61;101853.91;5037240;28;1964;-64
2024/01/11 03:53:00;;;;;;;;;;;;;;;17.39;34.41;101853.53;5037758;28;1902;-64
2024/01/11 03:55:25;;;;;;;;;;;;;;;17.74;33.42;101850.47;5037329;28;1072;-64
2024/01/11 03:57:51;;;;;;;;;;;;;;;16.56;35.66;101845.88;5037432;28;1024;-66
2024/01/11 04:00:17;;;;;;;;;;;;;;;16.10;36.64;101843.09;5036793;28;1090;-64
2024/01/11 04:02:42;;;;;;;;;;;;;;;17.54;34.19;101848.25;5037403;28;1071;-63
2024/01/11 04:05:08;;;;;;;;;;;;;;;17.66;33.78;101839.91;5037062;28;1148;-65
2024/01/11 04:07:33;;;;;;;;;;;;;;;16.56;35.68;101834.88;5037263;28;1008;-65
2024/01/11 04:10:00;;;;;;;;;;;;;;;16.14;36.69;101832.47;5036920;28;1278;-65
2024/01/11 04:12:25;;;;;;;;;;;;;;;17.31;34.40;101824.56;5036890;28;1089;-66
2024/01/11 04:14:51;;;;;;;;;;;;;;;18.04;33.20;101832.69;5037337;28;1132;-65
2024/01/11 04:17:16;;;;;;;;;;;;;;;16.73;35.58;101824.75;5036092;28;1294;-62
2024/01/11 04:19:42;;;;;;;;;;;;;;;16.21;36.48;101833.16;5036997;28;1838;-65
2024/01/11 04:22:08;;;;;;;;;;;;;;;16.68;35.88;101832.91;5036989;28;1039;-64
2024/01/11 04:24:33;;;;;;;;;;;;;;;17.91;33.47;101827.59;5036490;28;1032;-64
2024/01/11 04:26:59;;;;;;;;;;;;;;;17.00;35.02;101824.13;5037212;28;1129;-65
2024/01/11 04:29:24;;;;;;;;;;;;;;;16.29;36.49;101823.69;5036627;28;1538;-66
2024/01/11 04:31:50;;;;;;;;;;;;;;;17.23;34.46;101823.06;5036539;28;1084;-64
2024/01/11 04:34:15;;;;;;;;;;;;;;;17.90;33.31;101828.63;5036923;28;2011;-61
2024/01/11 04:36:41;;;;;;;;;;;;;;;16.74;35.33;101823.66;5036380;28;898;-61
2024/01/11 04:39:07;;;;;;;;;;;;;;;16.16;36.67;101830.28;5036565;28;1028;-61
2024/01/11 04:41:34;;;;;;;;;;;;;;;17.24;34.44;101829.44;5036812;28;1088;-62
2024/01/11 04:44:00;;;;;;;;;;;;;;;17.88;33.54;101828.06;5036729;28;1000;-62
2024/01/11 04:46:25;;;;;;;;;;;;;;;16.64;35.70;101831.72;5036643;28;1563;-66
2024/01/11 04:48:52;;;;;;;;;;;;;;;16.17;36.75;101829.22;5031891;28;1306;-61
2024/01/11 04:51:18;;;;;;;;;;;;;;;17.53;34.15;101832.00;5036128;28;2641;-65
2024/01/11 04:53:43;;;;;;;;;;;;;;;17.78;33.21;101832.34;5036251;28;1981;-64
2024/01/11 04:56:10;;;;;;;;;;;;;;;16.72;35.26;101828.56;5036129;28;1020;-62
2024/01/11 04:58:37;;;;;;;;;;;;;;;16.12;36.44;101829.13;5036843;28;1171;-63
2024/01/11 05:01:03;;;;;;;;;;;;;;;17.56;33.88;101831.53;5036241;28;920;-64
2024/01/11 05:03:29;;;;;;;;;;;;;;;17.48;33.73;101827.28;5036320;28;1041;-60
2024/01/11 05:05:55;;;;;;;;;;;;;;;16.49;35.67;101823.22;5035178;28;1108;-64
2024/01/11 05:08:20;;;;;;;;;;;;;;;16.29;36.28;101824.53;5035274;28;1109;-62
2024/01/11 05:10:46;;;;;;;;;;;;;;;17.76;33.43;101819.94;5035065;28;1012;-65
2024/01/11 05:13:12;;;;;;;;;;;;;;;17.48;34.04;101818.22;5036074;28;1910;-63
2024/01/11 05:15:37;;;;;;;;;;;;;;;16.62;35.57;101827.56;5035635;28;1168;-65
2024/01/11 05:18:03;;;;;;;;;;;;;;;16.08;36.60;101818.63;5035824;28;1017;-65
2024/01/11 05:20:29;;;;;;;;;;;;;;;17.42;34.16;101823.63;5035587;28;2656;-65
2024/01/11 05:22:55;;;;;;;;;;;;;;;18.38;32.08;101813.22;5036003;28;1028;-66
2024/01/11 05:25:20;;;;;;;;;;;;;;;16.92;34.72;101811.63;5036042;28;901;-63
2024/01/11 05:27:46;;;;;;;;;;;;;;;16.34;35.78;101808.16;5040105;28;1296;-64
2024/01/11 05:30:12;;;;;;;;;;;;;;;15.97;36.74;101805.81;5042623;28;1171;-63
2024/01/11 05:32:38;;;;;;;;;;;;;;;17.44;34.15;101802.19;5037401;28;1914;-65
2024/01/11 05:35:03;;;;;;;;;;;;;;;17.01;34.56;101809.31;5018442;28;918;-60
2024/01/11 05:37:29;;;;;;;;;;;;;;;17.14;34.92;101801.78;5035612;28;881;-56
2024/01/11 05:39:56;;;;;;;;;;;;;;;18.41;32.55;101803.59;5035823;28;1068;-66
2024/01/11 05:42:22;;;;;;;;;;;;;;;16.85;35.12;101790.88;5035958;28;1215;-66
2024/01/11 05:44:48;;;;;;;;;;;;;;;16.40;35.93;101787.13;5036028;28;1093;-66
2024/01/11 05:47:14;;;;;;;;;;;;;;;16.29;36.25;101788.03;5036229;28;1075;-66
2024/01/11 05:49:40;;;;;;;;;;;;;;;17.93;33.41;101786.88;5035664;28;2521;-62
2024/01/11 05:52:05;;;;;;;;;;;;;;;17.04;35.01;101781.31;5036237;28;1009;-61
2024/01/11 05:54:31;;;;;;;;;;;;;;;17.38;34.44;101780.41;5036030;28;1897;-63
2024/01/11 05:56:58;;;;;;;;;;;;;;;18.25;32.72;101778.69;5035338;28;1260;-63
2024/01/11 05:59:23;;;;;;;;;;;;;;;16.93;34.95;101777.56;5035999;28;965;-62
2024/01/11 06:01:49;;;;;;;;;;;;;;;16.95;35.34;101785.56;5035348;28;1065;-60
2024/01/11 06:04:14;;;;;;;;;;;;;;;18.40;32.75;101778.00;5039139;28;1017;-60
2024/01/11 06:06:40;;;;;;;;;;;;;;;17.02;34.92;101771.66;5039846;28;1167;-58
2024/01/11 06:09:06;;;;;;;;;;;;;;;16.45;36.01;101772.63;5039665;28;1028;-58
2024/01/11 06:11:31;;;;;;;;;;;;;;;17.02;35.31;101774.41;5038916;28;1095;-57
2024/01/11 06:13:57;;;;;;;;;;;;;;;17.75;33.76;101777.00;5039728;28;1906;-56
2024/01/11 06:16:23;;;;;;;;;;;;;;;16.61;35.73;101777.31;5038653;28;1140;-59
2024/01/11 06:18:49;;;;;;;;;;;;;;;16.14;36.86;101775.66;5038707;28;1195;-60
2024/01/11 06:21:16;;;;;;;;;;;;;;;17.46;34.58;101777.22;5038816;28;2593;-61
2024/01/11 06:23:43;;;;;;;;;;;;;;;17.89;33.63;101775.53;5035691;28;1186;-60
2024/01/11 06:26:08;;;;;;;;;;;;;;;16.62;36.03;101773.50;5039356;28;1075;-59
2024/01/11 06:28:34;;;;;;;;;;;;;;;17.76;33.89;101776.75;5038980;28;953;-59
2024/01/11 06:31:00;;;;;;;;;;;;;;;17.13;34.85;101764.41;5039343;28;1009;-58
2024/01/11 06:33:25;;;;;;;;;;;;;;;16.88;35.58;101774.75;5038258;28;1971;-60
2024/01/11 06:35:51;;;;;;;;;;;;;;;18.36;33.01;101774.09;5038577;28;1119;-56
2024/01/11 06:38:16;;;;;;;;;;;;;;;16.94;35.46;101775.66;5039372;28;1103;-59
2024/01/11 06:40:43;;;;;;;;;;;;;;;17.07;35.26;101778.06;5039235;28;1113;-56
2024/01/11 06:43:08;;;;;;;;;;;;;;;18.27;32.98;101772.91;5038823;28;1052;-57
2024/01/11 06:45:34;;;;;;;;;;;;;;;16.90;35.57;101764.34;5038204;28;1056;-56
2024/01/11 06:48:00;;;;;;;;;;;;;;;17.79;33.85;101773.50;5038458;28;1079;-53
2024/01/11 06:50:26;;;;;;;;;;;;;;;18.34;32.78;101773.53;5038992;28;2288;-57
2024/01/11 06:52:52;;;;;;;;;;;;;;;17.00;34.96;101774.66;5038536;28;1973;-60
2024/01/11 06:55:17;;;;;;;;;;;;;;;17.10;35.20;101766.56;5039114;28;1076;-53
2024/01/11 06:57:46;;;;;;;;;;;;;;;18.46;32.73;101765.09;5038509;28;1064;-57
2024/01/11 07:00:13;;;;;;;;;;;;;;;17.03;35.03;101771.41;5037690;28;1055;-58
2024/01/11 07:02:40;;;;;;;;;;;;;;;17.39;34.73;101769.16;5036466;28;1102;-57
2024/01/11 07:05:06;;;;;;;;;;;;;;;18.73;32.26;101765.06;5038598;28;1127;-55
2024/01/11 07:07:32;;;;;;;;;;;;;;;17.37;34.63;101768.56;5038181;28;1012;-57
2024/01/11 07:09:58;;;;;;;;;;;;;;;17.31;34.95;101768.78;5038219;28;1048;-59
2024/01/11 07:12:24;;;;;;;;;;;;;;;18.23;32.88;101755.25;5035385;28;1314;-56
2024/01/11 07:14:49;;;;;;;;;;;;;;;17.09;34.93;101756.63;5036985;28;1911;-57
2024/01/11 07:17:15;;;;;;;;;;;;;;;16.64;36.06;101754.84;5036995;28;1055;-58
2024/01/11 07:19:40;;;;;;;;;;;;;;;17.66;34.01;101771.13;5038253;28;1865;-58
2024/01/11 07:22:06;;;;;;;;;;;;;;;17.88;33.42;101757.38;5037846;28;1068;-56
2024/01/11 07:24:37;;;;;;;;;;;;;;;16.90;35.55;101758.00;5037816;28;1068;-57
2024/01/11 07:27:05;;;;;;;;;;;;;;;17.50;34.65;101761.88;5037966;28;1289;-57
2024/01/11 07:29:31;;;;;;;;;;;;;;;17.55;34.19;101748.16;5028162;28;1032;-57
2024/01/11 07:31:57;;;;;;;;;;;;;;;16.83;35.53;101754.56;5037998;28;899;-57
2024/01/11 07:34:24;;;;;;;;;;;;;;;16.71;35.87;101750.00;5037559;28;1976;-58
2024/01/11 07:36:49;;;;;;;;;;;;;;;18.15;33.15;101756.56;5037993;28;1115;-57
2024/01/11 07:39:15;;;;;;;;;;;;;;;16.74;35.56;101755.00;5037160;28;1195;-56
2024/01/11 07:41:41;;;;;;;;;;;;;;;18.15;33.17;101753.00;5037100;28;1096;-59
2024/01/11 07:44:07;;;;;;;;;;;;;;;18.05;33.21;101748.22;5037388;28;858;-57
2024/01/11 07:46:33;;;;;;;;;;;;;;;16.93;35.08;101744.59;5037200;28;1318;-56
2024/01/11 07:48:58;;;;;;;;;;;;;;;16.50;36.37;101743.34;5036769;28;1034;-57
2024/01/11 07:51:25;;;;;;;;;;;;;;;18.27;33.17;101734.34;5029996;28;2559;-57
2024/01/11 07:53:50;;;;;;;;;;;;;;;17.60;34.04;101740.00;5036240;28;1979;-57
2024/01/11 07:56:16;;;;;;;;;;;;;;;16.86;35.36;101734.88;5038113;28;1047;-58
2024/01/11 07:58:42;;;;;;;;;;;;;;;16.49;36.12;101736.19;5037932;28;1071;-57
2024/01/11 08:01:09;;;;;;;;;;;;;;;18.17;33.19;101726.84;5037411;28;1067;-57
2024/01/11 08:03:34;;;;;;;;;;;;;;;17.24;34.82;101724.97;5037237;28;1116;-58
2024/01/11 08:06:00;;;;;;;;;;;;;;;16.58;35.86;101728.41;5037611;28;1159;-57
2024/01/11 08:08:26;;;;;;;;;;;;;;;16.23;36.64;101726.72;5037178;28;1071;-58
2024/01/11 08:10:51;;;;;;;;;;;;;;;17.78;33.99;101729.72;5037506;28;1036;-56
2024/01/11 08:13:17;;;;;;;;;;;;;;;17.04;35.23;101715.38;5036870;28;1964;-58
2024/01/11 08:15:43;;;;;;;;;;;;;;;17.16;35.04;101722.66;5037154;28;1242;-57
2024/01/11 08:18:09;;;;;;;;;;;;;;;18.12;33.23;101719.38;5036228;28;1289;-55
2024/01/11 08:20:35;;;;;;;;;;;;;;;16.80;35.46;101716.63;5036002;28;2434;-57
2024/01/11 08:23:01;;;;;;;;;;;;;;;17.82;34.00;101708.03;5039021;28;1319;-55
2024/01/11 08:25:26;;;;;;;;;;;;;;;17.84;33.64;101703.94;5042449;28;910;-56
2024/01/11 08:27:52;;;;;;;;;;;;;;;16.82;35.39;101701.56;5037345;28;1074;-56
2024/01/11 08:30:17;;;;;;;;;;;;;;;17.73;33.84;101697.50;5036820;28;1306;-56
2024/01/11 08:32:43;;;;;;;;;;;;;;;17.81;33.48;101701.72;5036354;28;1973;-58
2024/01/11 08:35:09;;;;;;;;;;;;;;;16.88;35.43;101696.97;5035943;28;1565;-56
2024/01/11 08:37:35;;;;;;;;;;;;;;;16.41;36.10;101690.78;5036275;28;1107;-58
2024/01/11 08:40:01;;;;;;;;;;;;;;;17.36;34.38;101684.44;5036552;28;1123;-55
2024/01/11 08:42:27;;;;;;;;;;;;;;;18.58;32.40;101688.63;5036699;28;1036;-56
2024/01/11 08:44:52;;;;;;;;;;;;;;;17.14;34.71;101680.84;5036502;28;1151;-58
2024/01/11 08:47:18;;;;;;;;;;;;;;;16.68;35.51;101679.09;5035033;28;1005;-57
2024/01/11 08:49:43;;;;;;;;;;;;;;;18.45;32.50;101667.03;5034997;28;1875;-57
2024/01/11 08:52:09;;;;;;;;;;;;;;;17.12;34.66;101670.13;5035555;28;1176;-58
2024/01/11 08:54:35;;;;;;;;;;;;;;;16.52;36.07;101663.47;5035795;28;1981;-58
2024/01/11 08:57:01;;;;;;;;;;;;;;;18.30;32.80;101652.09;5032454;28;1148;-59
2024/01/11 08:59:27;;;;;;;;;;;;;;;17.27;34.37;101651.06;5035957;28;1100;-59
2024/01/11 09:01:52;;;;;;;;;;;;;;;16.67;35.91;101663.72;5035315;28;1091;-58
2024/01/11 09:04:18;;;;;;;;;;;;;;;17.18;34.94;101643.53;5027501;28;1136;-59
2024/01/11 09:06:44;;;;;;;;;;;;;;;18.26;32.96;101636.38;5030851;28;1016;-57
2024/01/11 09:09:10;;;;;;;;;;;;;;;16.96;35.21;101625.13;5036149;28;1143;-58
2024/01/11 09:11:36;;;;;;;;;;;;;;;16.53;36.10;101621.22;5036360;28;1116;-60
2024/01/11 09:14:02;;;;;;;;;;;;;;;18.29;32.98;101616.56;5035880;28;1902;-60
2024/01/11 09:16:28;;;;;;;;;;;;;;;16.96;35.25;101611.41;5036672;28;1184;-61
2024/01/11 09:18:54;;;;;;;;;;;;;;;16.48;36.31;101607.41;5036320;28;1079;-58
2024/01/11 09:21:19;;;;;;;;;;;;;;;16.19;36.74;101608.38;5036084;28;2538;-60
2024/01/11 09:23:45;;;;;;;;;;;;;;;17.06;35.38;101600.53;5035925;28;1135;-57
2024/01/11 09:26:11;;;;;;;;;;;;;;;18.36;32.77;101578.59;5036040;28;1211;-58
2024/01/11 09:28:36;;;;;;;;;;;;;;;17.06;34.93;101586.78;5036124;28;1106;-59
2024/01/11 09:31:02;;;;;;;;;;;;;;;16.53;35.76;101571.81;5036308;28;1114;-52
2024/01/11 09:33:27;;;;;;;;;;;;;;;18.23;32.99;101571.66;5036188;28;1894;-55
2024/01/11 09:35:54;;;;;;;;;;;;;;;17.01;34.89;101567.50;5036103;28;1127;-56
2024/01/11 09:38:20;;;;;;;;;;;;;;;16.51;35.79;101546.50;5035441;28;1069;-58
2024/01/11 09:40:46;;;;;;;;;;;;;;;17.42;34.49;101548.69;5034926;28;1232;-58
2024/01/11 09:43:11;;;;;;;;;;;;;;;16.96;34.85;101534.47;5013843;28;1100;-57
2024/01/11 09:45:37;;;;;;;;;;;;;;;16.42;36.08;101537.88;5013093;28;1060;-58
2024/01/11 09:48:03;;;;;;;;;;;;;;;16.02;36.90;101534.31;5036193;28;1060;-59
2024/01/11 09:50:29;;;;;;;;;;;;;;;17.61;34.13;101531.78;5017965;28;2634;-58
2024/01/11 09:52:54;;;;;;;;;;;;;;;17.73;33.58;101523.38;5018220;28;1973;-60
2024/01/11 09:55:20;;;;;;;;;;;;;;;16.63;35.84;101518.94;5036032;28;1068;-59
2024/01/11 09:57:47;;;;;;;;;;;;;;;17.57;34.36;101515.00;5035690;28;1040;-57
2024/01/11 10:00:19;;;;;;;;;;;;;;;17.28;34.48;101507.03;5035751;28;1048;-60
2024/01/11 10:02:47;;;;;;;;;;;;;;;17.27;34.87;101507.31;5035394;28;1143;-59
2024/01/11 10:05:16;;;;;;;;;;;;;;;18.50;32.65;101499.09;5034881;28;1322;-60
2024/01/11 10:07:41;;;;;;;;;;;;;;;17.06;34.97;101498.84;5034186;28;1061;-59
2024/01/11 10:10:07;;;;;;;;;;;;;;;16.52;35.95;101498.75;5035399;28;1350;-60
2024/01/11 10:12:36;;;;;;;;;;;;;;;16.24;36.64;101486.88;5039419;28;1109;-58
2024/01/11 10:15:05;;;;;;;;;;;;;;;17.58;34.08;101480.06;5035122;28;1985;-59
2024/01/11 10:17:30;;;;;;;;;;;;;;;16.49;36.17;101478.13;5035535;28;1210;-59
2024/01/11 10:19:58;;;;;;;;;;;;;;;17.37;34.83;101468.91;5035686;28;2317;-59
2024/01/11 10:22:24;;;;;;;;;;;;;;;18.16;33.26;101460.09;5035687;28;1080;-59
2024/01/11 10:24:49;;;;;;;;;;;;;;;16.86;35.50;101454.69;5035655;28;1220;-58
2024/01/11 10:27:15;;;;;;;;;;;;;;;17.15;35.36;101463.47;5035067;28;846;-57
2024/01/11 10:29:40;;;;;;;;;;;;;;;17.84;33.81;101455.47;5035531;28;1183;-59
2024/01/11 10:32:06;;;;;;;;;;;;;;;16.77;35.71;101449.63;5035538;28;1060;-60
2024/01/11 10:34:32;;;;;;;;;;;;;;;16.41;36.78;101438.25;5035463;28;1985;-57
2024/01/11 10:36:57;;;;;;;;;;;;;;;18.18;33.32;101430.41;5035128;28;1154;-58
2024/01/11 10:39:26;;;;;;;;;;;;;;;16.81;35.60;101425.22;5034975;28;1095;-59
2024/01/11 10:41:52;;;;;;;;;;;;;;;16.69;36.00;101416.28;5017176;28;1033;-58
2024/01/11 10:44:23;;;;;;;;;;;;;;;18.34;33.08;101412.00;5017346;28;1009;-58
2024/01/11 10:46:49;;;;;;;;;;;;;;;16.95;35.63;101417.41;5035326;28;1059;-57
2024/01/11 10:49:19;;;;;;;;;;;;;;;16.46;36.45;101403.72;5037213;28;2397;-57
2024/01/11 10:51:57;;;;;;;;;;;;;;;17.72;34.37;101398.75;5038562;28;867;-57
2024/01/11 10:54:23;;;;;;;;;;;;;;;17.27;34.79;101389.13;5038640;28;1906;-57
2024/01/11 10:56:48;;;;;;;;;;;;;;;16.52;36.58;101386.19;5021292;28;1143;-57
2024/01/11 10:59:14;;;;;;;;;;;;;;;17.81;34.12;101387.25;5038793;28;1060;-57
2024/01/11 11:01:39;;;;;;;;;;;;;;;17.43;34.64;101379.03;5026961;28;1033;-57
2024/01/11 11:04:06;;;;;;;;;;;;;;;16.74;36.15;101372.41;5037936;28;894;-57
2024/01/11 11:06:32;;;;;;;;;;;;;;;18.45;32.73;101366.88;5036350;28;1373;-57
2024/01/11 11:08:58;;;;;;;;;;;;;;;17.06;34.84;101364.22;5021015;28;1052;-57
2024/01/11 11:11:23;;;;;;;;;;;;;;;16.60;36.06;101358.28;5036246;28;1057;-57
2024/01/11 11:13:49;;;;;;;;;;;;;;;16.27;36.83;101345.56;5036797;28;1918;-57
2024/01/11 11:16:15;;;;;;;;;;;;;;;17.56;34.25;101345.59;5021411;28;895;-57
2024/01/11 11:18:41;;;;;;;;;;;;;;;17.21;34.81;101335.22;5043598;28;1127;-58
2024/01/11 11:21:09;;;;;;;;;;;;;;;16.50;36.36;101337.03;5037943;28;2511;-57
2024/01/11 11:23:34;;;;;;;;;;;;;;;17.23;34.86;101333.00;5037449;28;1461;-56
2024/01/11 11:26:00;;;;;;;;;;;;;;;18.24;33.08;101330.22;5020060;28;1178;-56
2024/01/11 11:28:25;;;;;;;;;;;;;;;16.90;35.37;101326.72;5036870;28;1099;-64
2024/01/11 11:30:52;;;;;;;;;;;;;;;16.56;36.16;101318.69;5020081;28;1154;-59
2024/01/11 11:33:21;;;;;;;;;;;;;;;18.29;32.99;101311.78;5037790;28;1994;-56
2024/01/11 11:35:47;;;;;;;;;;;;;;;17.03;35.06;101309.78;5037505;28;1579;-60
2024/01/11 11:38:19;;;;;;;;;;;;;;;16.60;36.14;101308.84;5036452;28;1030;-60
2024/01/11 11:40:46;;;;;;;;;;;;;;;18.09;33.11;101298.81;5038011;28;1108;-59
2024/01/11 11:43:11;;;;;;;;;;;;;;;16.76;35.62;101305.16;5037139;28;1302;-58
2024/01/11 11:45:37;;;;;;;;;;;;;;;16.40;36.34;101287.53;5037799;28;1075;-57
2024/01/11 11:48:16;;;;;;;;;;;;;;;18.11;33.40;101285.59;5036865;28;2257;-59
2024/01/11 11:50:42;;;;;;;;;;;;;;;17.18;34.90;101278.00;5019790;28;1327;-58
2024/01/11 11:53:07;;;;;;;;;;;;;;;16.49;36.11;101274.16;5038299;28;1922;-59
2024/01/11 11:55:33;;;;;;;;;;;;;;;17.05;35.28;101265.56;5020639;28;1084;-58
2024/01/11 11:57:58;;;;;;;;;;;;;;;17.23;34.60;101262.38;5020457;28;1323;-59
2024/01/11 12:00:24;;;;;;;;;;;;;;;16.51;35.88;101261.84;5037176;28;1020;-58
2024/01/11 12:02:51;;;;;;;;;;;;;;;16.24;36.66;101262.69;5038365;28;1164;-61
2024/01/11 12:05:18;;;;;;;;;;;;;;;18.01;33.29;101254.50;5038076;28;1060;-60
2024/01/11 12:07:44;;;;;;;;;;;;;;;16.89;35.23;101250.91;5037773;28;1056;-59
2024/01/11 12:10:09;;;;;;;;;;;;;;;16.55;36.15;101253.91;5037734;28;1163;-60
2024/01/11 12:12:35;;;;;;;;;;;;;;;18.23;32.76;101252.31;5018450;28;1298;-63
2024/01/11 12:15:03;;;;;;;;;;;;;;;17.14;34.72;101249.41;5037312;28;1898;-61
2024/01/11 12:17:28;;;;;;;;;;;;;;;16.48;35.82;101240.41;5037263;28;1044;-48
2024/01/11 12:19:54;;;;;;;;;;;;;;;17.14;34.83;101243.91;5036983;28;1017;-47
2024/01/11 12:22:20;;;;;;;;;;;;;;;18.36;32.61;101239.13;5036037;28;1385;-48
2024/01/11 12:24:46;;;;;;;;;;;;;;;16.92;35.14;101236.63;5019065;28;1076;-47
2024/01/11 12:27:11;;;;;;;;;;;;;;;16.47;36.19;101218.72;5035367;28;1248;-48
2024/01/11 12:29:38;;;;;;;;;;;;;;;17.78;33.63;101224.41;5036814;28;1076;-47
2024/01/11 12:32:04;;;;;;;;;;;;;;;17.52;34.04;101212.50;5036907;28;1286;-48
2024/01/11 12:34:30;;;;;;;;;;;;;;;16.73;35.65;101220.56;5036245;28;1902;-44
2024/01/11 12:37:00;;;;;;;;;;;;;;;16.37;36.25;101209.28;5019032;28;1227;-47
2024/01/11 12:39:25;;;;;;;;;;;;;;;18.09;33.23;101207.16;5037200;28;1349;-45
2024/01/11 12:41:52;;;;;;;;;;;;;;;17.30;34.49;101207.16;5036755;28;1489;-45